sensor_id;sensor_type;location;lat;lon;timestamp;pressure;altitude;pressure_sealevel;temperature;humidity
76864;BME280;65834;52.364;9.754;2023-04-24T00:02:16;99435.22;;;13.70;nan
76864;BME280;65834;52.364;9.754;2023-04-24T00:04:48;99429.22;;;13.68;nan
76864;BME280;65834;52.364;9.754;2023-04-24T00:07:18;99425.66;;;13.67;nan
76864;BME280;65834;52.364;9.754;2023-04-24T00:09:48;99429.56;;;13.71;nan
76864;BME280;65834;52.364;9.754;2023-04-24T00:12:17;99424.25;;;13.65;nan
76864;BME280;65834;52.364;9.754;2023-04-24T00:14:47;99426.72;;;13.66;nan
76864;BME280;65834;52.364;9.754;2023-04-24T00:17:17;99422.94;;;13.67;nan
76864;BME280;65834;52.364;9.754;2023-04-24T00:19:50;99415.84;;;13.54;nan
76864;BME280;65834;52.364;9.754;2023-04-24T00:22:25;99422.38;;;13.65;nan
76864;BME280;65834;52.364;9.754;2023-04-24T00:24:55;99419.41;;;13.55;nan
76864;BME280;65834;52.364;9.754;2023-04-24T00:27:24;99409.97;;;13.46;nan
76864;BME280;65834;52.364;9.754;2023-04-24T00:29:54;99423.19;;;13.54;nan
76864;BME280;65834;52.364;9.754;2023-04-24T00:32:24;99417.16;;;13.52;nan
76864;BME280;65834;52.364;9.754;2023-04-24T00:34:57;99413.97;;;13.55;nan
76864;BME280;65834;52.364;9.754;2023-04-24T00:37:26;99415.84;;;13.54;nan
76864;BME280;65834;52.364;9.754;2023-04-24T00:39:56;99418.09;;;13.34;nan
76864;BME280;65834;52.364;9.754;2023-04-24T00:42:26;99427.44;;;13.50;nan
76864;BME280;65834;52.364;9.754;2023-04-24T00:44:56;99439.13;;;13.50;nan
76864;BME280;65834;52.364;9.754;2023-04-24T00:47:26;99442.91;;;13.49;nan
76864;BME280;65834;52.364;9.754;2023-04-24T00:50:00;99436.28;;;13.34;nan
76864;BME280;65834;52.364;9.754;2023-04-24T00:52:31;99445.25;;;13.34;nan
76864;BME280;65834;52.364;9.754;2023-04-24T00:55:02;99428.50;;;13.37;nan
76864;BME280;65834;52.364;9.754;2023-04-24T00:57:32;99428.34;;;13.32;nan
76864;BME280;65834;52.364;9.754;2023-04-24T01:00:03;99440.53;;;13.30;nan
76864;BME280;65834;52.364;9.754;2023-04-24T01:02:39;99431.22;;;13.26;nan
76864;BME280;65834;52.364;9.754;2023-04-24T01:05:14;99449.41;;;13.37;nan
76864;BME280;65834;52.364;9.754;2023-04-24T01:07:45;99442.78;;;13.33;nan
76864;BME280;65834;52.364;9.754;2023-04-24T01:10:15;99407.06;;;13.06;nan
76864;BME280;65834;52.364;9.754;2023-04-24T01:12:47;99411.78;;;13.11;nan
76864;BME280;65834;52.364;9.754;2023-04-24T01:15:16;99440.78;;;13.28;nan
76864;BME280;65834;52.364;9.754;2023-04-24T01:17:46;99432.13;;;13.20;nan
76864;BME280;65834;52.364;9.754;2023-04-24T01:20:19;99436.75;;;13.31;nan
76864;BME280;65834;52.364;9.754;2023-04-24T01:22:51;99435.34;;;13.28;nan
76864;BME280;65834;52.364;9.754;2023-04-24T01:25:22;99437.22;;;13.28;nan
76864;BME280;65834;52.364;9.754;2023-04-24T01:27:52;99427.16;;;13.17;nan
76864;BME280;65834;52.364;9.754;2023-04-24T01:30:22;99423.94;;;13.08;nan
76864;BME280;65834;52.364;9.754;2023-04-24T01:32:52;99433.19;;;13.19;nan
76864;BME280;65834;52.364;9.754;2023-04-24T01:35:22;99401.59;;;12.94;nan
76864;BME280;65834;52.364;9.754;2023-04-24T01:37:55;99438.47;;;13.14;nan
76864;BME280;65834;52.364;9.754;2023-04-24T01:40:24;99438.44;;;13.02;nan
76864;BME280;65834;52.364;9.754;2023-04-24T01:42:57;99440.03;;;13.10;nan
76864;BME280;65834;52.364;9.754;2023-04-24T01:45:29;99439.31;;;13.14;nan
76864;BME280;65834;52.364;9.754;2023-04-24T01:47:58;99422.38;;;13.00;nan
76864;BME280;65834;52.364;9.754;2023-04-24T01:50:29;99426.72;;;13.01;nan
76864;BME280;65834;52.364;9.754;2023-04-24T01:53:01;99434.19;;;13.06;nan
76864;BME280;65834;52.364;9.754;2023-04-24T01:55:31;99429.78;;;12.93;nan
76864;BME280;65834;52.364;9.754;2023-04-24T01:58:01;99421.56;;;13.00;nan
76864;BME280;65834;52.364;9.754;2023-04-24T02:00:30;99431.47;;;12.94;nan
76864;BME280;65834;52.364;9.754;2023-04-24T02:03:00;99444.19;;;12.94;nan
76864;BME280;65834;52.364;9.754;2023-04-24T02:05:30;99429.41;;;12.78;nan
76864;BME280;65834;52.364;9.754;2023-04-24T02:08:04;99444.88;;;12.89;nan
76864;BME280;65834;52.364;9.754;2023-04-24T02:10:36;99441.56;;;12.87;nan
76864;BME280;65834;52.364;9.754;2023-04-24T02:13:06;99437.19;;;12.86;nan
76864;BME280;65834;52.364;9.754;2023-04-24T02:15:36;99425.47;;;12.74;nan
76864;BME280;65834;52.364;9.754;2023-04-24T02:18:05;99427.63;;;12.84;nan
76864;BME280;65834;52.364;9.754;2023-04-24T02:20:35;99414.31;;;12.82;nan
76864;BME280;65834;52.364;9.754;2023-04-24T02:23:07;99414.53;;;12.81;nan
76864;BME280;65834;52.364;9.754;2023-04-24T02:25:37;99415.75;;;12.85;nan
76864;BME280;65834;52.364;9.754;2023-04-24T02:28:07;99410.88;;;12.87;nan
76864;BME280;65834;52.364;9.754;2023-04-24T02:30:36;99410.06;;;12.86;nan
76864;BME280;65834;52.364;9.754;2023-04-24T02:33:06;99404.72;;;12.80;nan
76864;BME280;65834;52.364;9.754;2023-04-24T02:35:36;99402.25;;;12.78;nan
76864;BME280;65834;52.364;9.754;2023-04-24T02:38:08;99401.56;;;12.83;nan
76864;BME280;65834;52.364;9.754;2023-04-24T02:40:37;99404.63;;;12.86;nan
76864;BME280;65834;52.364;9.754;2023-04-24T02:43:09;99409.00;;;12.87;nan
76864;BME280;65834;52.364;9.754;2023-04-24T02:45:38;99410.16;;;12.80;nan
76864;BME280;65834;52.364;9.754;2023-04-24T02:48:08;99402.94;;;12.74;nan
76864;BME280;65834;52.364;9.754;2023-04-24T02:50:38;99413.66;;;12.69;nan
76864;BME280;65834;52.364;9.754;2023-04-24T02:53:10;99416.00;;;12.65;nan
76864;BME280;65834;52.364;9.754;2023-04-24T02:55:39;99413.91;;;12.67;nan
76864;BME280;65834;52.364;9.754;2023-04-24T02:58:09;99391.81;;;12.34;nan
76864;BME280;65834;52.364;9.754;2023-04-24T03:00:39;99403.97;;;12.31;nan
76864;BME280;65834;52.364;9.754;2023-04-24T03:03:10;99405.91;;;12.42;nan
76864;BME280;65834;52.364;9.754;2023-04-24T03:05:39;99404.13;;;12.36;nan
76864;BME280;65834;52.364;9.754;2023-04-24T03:08:12;99404.47;;;12.40;nan
76864;BME280;65834;52.364;9.754;2023-04-24T03:10:41;99401.06;;;12.44;nan
76864;BME280;65834;52.364;9.754;2023-04-24T03:13:15;99401.66;;;12.46;nan
76864;BME280;65834;52.364;9.754;2023-04-24T03:15:44;99407.28;;;12.15;nan
76864;BME280;65834;52.364;9.754;2023-04-24T03:18:14;99394.88;;;12.26;nan
76864;BME280;65834;52.364;9.754;2023-04-24T03:20:46;99408.63;;;12.24;nan
76864;BME280;65834;52.364;9.754;2023-04-24T03:23:18;99403.28;;;12.36;nan
76864;BME280;65834;52.364;9.754;2023-04-24T03:25:48;99403.59;;;12.28;nan
76864;BME280;65834;52.364;9.754;2023-04-24T03:28:19;99405.38;;;12.34;nan
76864;BME280;65834;52.364;9.754;2023-04-24T03:30:57;99404.78;;;12.32;nan
76864;BME280;65834;52.364;9.754;2023-04-24T03:33:31;99408.22;;;12.27;nan
76864;BME280;65834;52.364;9.754;2023-04-24T03:36:01;99402.03;;;12.20;nan
76864;BME280;65834;52.364;9.754;2023-04-24T03:38:41;99402.94;;;12.14;nan
76864;BME280;65834;52.364;9.754;2023-04-24T03:41:33;99409.47;;;12.25;nan
76864;BME280;65834;52.364;9.754;2023-04-24T03:44:11;99402.78;;;12.27;nan
76864;BME280;65834;52.364;9.754;2023-04-24T03:46:41;99403.00;;;12.26;nan
76864;BME280;65834;52.364;9.754;2023-04-24T03:49:11;99402.63;;;12.22;nan
76864;BME280;65834;52.364;9.754;2023-04-24T03:51:43;99403.91;;;12.20;nan
76864;BME280;65834;52.364;9.754;2023-04-24T03:54:22;99393.66;;;12.22;nan
76864;BME280;65834;52.364;9.754;2023-04-24T03:56:53;99394.28;;;12.24;nan
76864;BME280;65834;52.364;9.754;2023-04-24T03:59:25;99395.69;;;12.26;nan
76864;BME280;65834;52.364;9.754;2023-04-24T04:02:07;99389.00;;;12.11;nan
76864;BME280;65834;52.364;9.754;2023-04-24T04:04:37;99394.94;;;12.19;nan
76864;BME280;65834;52.364;9.754;2023-04-24T04:07:07;99387.50;;;12.15;nan
76864;BME280;65834;52.364;9.754;2023-04-24T04:09:40;99387.34;;;12.10;nan
76864;BME280;65834;52.364;9.754;2023-04-24T04:12:10;99393.22;;;12.07;nan
76864;BME280;65834;52.364;9.754;2023-04-24T04:14:40;99391.13;;;12.09;nan
76864;BME280;65834;52.364;9.754;2023-04-24T04:17:09;99403.53;;;12.16;nan
76864;BME280;65834;52.364;9.754;2023-04-24T04:19:39;99399.06;;;12.22;nan
76864;BME280;65834;52.364;9.754;2023-04-24T04:22:09;99387.25;;;12.16;nan
76864;BME280;65834;52.364;9.754;2023-04-24T04:24:45;99389.53;;;12.19;nan
76864;BME280;65834;52.364;9.754;2023-04-24T04:27:15;99394.28;;;12.24;nan
76864;BME280;65834;52.364;9.754;2023-04-24T04:29:52;99389.91;;;12.23;nan
76864;BME280;65834;52.364;9.754;2023-04-24T04:32:23;99383.72;;;12.16;nan
76864;BME280;65834;52.364;9.754;2023-04-24T04:34:53;99377.34;;;12.10;nan
76864;BME280;65834;52.364;9.754;2023-04-24T04:37:25;99384.94;;;12.20;nan
76864;BME280;65834;52.364;9.754;2023-04-24T04:40:16;99388.00;;;12.23;nan
76864;BME280;65834;52.364;9.754;2023-04-24T04:42:54;99378.22;;;12.22;nan
76864;BME280;65834;52.364;9.754;2023-04-24T04:45:27;99381.19;;;12.21;nan
76864;BME280;65834;52.364;9.754;2023-04-24T04:48:16;99392.22;;;12.19;nan
76864;BME280;65834;52.364;9.754;2023-04-24T04:50:46;99392.38;;;12.24;nan
76864;BME280;65834;52.364;9.754;2023-04-24T04:53:16;99385.75;;;12.20;nan
76864;BME280;65834;52.364;9.754;2023-04-24T04:55:49;99388.47;;;12.20;nan
76864;BME280;65834;52.364;9.754;2023-04-24T04:58:21;99389.63;;;11.94;nan
76864;BME280;65834;52.364;9.754;2023-04-24T05:00:55;99384.19;;;11.94;nan
76864;BME280;65834;52.364;9.754;2023-04-24T05:03:29;99386.69;;;11.96;nan
76864;BME280;65834;52.364;9.754;2023-04-24T05:06:06;99390.06;;;12.10;nan
76864;BME280;65834;52.364;9.754;2023-04-24T05:08:38;99390.06;;;12.10;nan
76864;BME280;65834;52.364;9.754;2023-04-24T05:11:15;99389.91;;;12.05;nan
76864;BME280;65834;52.364;9.754;2023-04-24T05:13:45;99394.44;;;11.92;nan
76864;BME280;65834;52.364;9.754;2023-04-24T05:16:19;99401.97;;;12.09;nan
76864;BME280;65834;52.364;9.754;2023-04-24T05:18:51;99402.88;;;12.03;nan
76864;BME280;65834;52.364;9.754;2023-04-24T05:21:27;99398.63;;;12.07;nan
76864;BME280;65834;52.364;9.754;2023-04-24T05:23:57;99401.72;;;12.10;nan
76864;BME280;65834;52.364;9.754;2023-04-24T05:26:44;99392.56;;;12.11;nan
76864;BME280;65834;52.364;9.754;2023-04-24T05:29:16;99401.44;;;12.00;nan
76864;BME280;65834;52.364;9.754;2023-04-24T05:31:46;99411.16;;;12.08;nan
76864;BME280;65834;52.364;9.754;2023-04-24T05:34:16;99410.56;;;12.06;nan
76864;BME280;65834;52.364;9.754;2023-04-24T05:36:51;99415.28;;;12.10;nan
76864;BME280;65834;52.364;9.754;2023-04-24T05:39:21;99424.09;;;12.06;nan
76864;BME280;65834;52.364;9.754;2023-04-24T05:41:55;99427.16;;;12.09;nan
76864;BME280;65834;52.364;9.754;2023-04-24T05:44:25;99430.03;;;12.14;nan
76864;BME280;65834;52.364;9.754;2023-04-24T05:46:55;99435.31;;;12.27;nan
76864;BME280;65834;52.364;9.754;2023-04-24T05:49:25;99436.94;;;12.28;nan
76864;BME280;65834;52.364;9.754;2023-04-24T05:51:56;99428.44;;;12.25;nan
76864;BME280;65834;52.364;9.754;2023-04-24T05:54:27;99435.75;;;12.24;nan
76864;BME280;65834;52.364;9.754;2023-04-24T05:56:59;99424.59;;;12.32;nan
76864;BME280;65834;52.364;9.754;2023-04-24T05:59:47;99429.31;;;12.37;nan
76864;BME280;65834;52.364;9.754;2023-04-24T06:02:19;99419.09;;;12.39;nan
76864;BME280;65834;52.364;9.754;2023-04-24T06:04:50;99427.06;;;12.34;nan
76864;BME280;65834;52.364;9.754;2023-04-24T06:07:19;99429.66;;;12.29;nan
76864;BME280;65834;52.364;9.754;2023-04-24T06:09:49;99419.63;;;12.29;nan
76864;BME280;65834;52.364;9.754;2023-04-24T06:12:22;99420.59;;;12.35;nan
76864;BME280;65834;52.364;9.754;2023-04-24T06:15:04;99431.31;;;12.30;nan
76864;BME280;65834;52.364;9.754;2023-04-24T06:17:53;99441.72;;;12.33;nan
76864;BME280;65834;52.364;9.754;2023-04-24T06:20:23;99439.13;;;12.38;nan
76864;BME280;65834;52.364;9.754;2023-04-24T06:22:53;99434.88;;;12.30;nan
76864;BME280;65834;52.364;9.754;2023-04-24T06:25:25;99441.91;;;12.31;nan
76864;BME280;65834;52.364;9.754;2023-04-24T06:27:57;99431.44;;;12.35;nan
76864;BME280;65834;52.364;9.754;2023-04-24T06:30:29;99435.84;;;12.18;nan
76864;BME280;65834;52.364;9.754;2023-04-24T06:33:00;99438.38;;;12.13;nan
76864;BME280;65834;52.364;9.754;2023-04-24T06:35:44;99443.06;;;12.24;nan
76864;BME280;65834;52.364;9.754;2023-04-24T06:38:14;99445.47;;;12.32;nan
76864;BME280;65834;52.364;9.754;2023-04-24T06:40:45;99443.97;;;12.18;nan
76864;BME280;65834;52.364;9.754;2023-04-24T06:43:17;99442.81;;;12.25;nan
76864;BME280;65834;52.364;9.754;2023-04-24T06:45:47;99437.00;;;12.40;nan
76864;BME280;65834;52.364;9.754;2023-04-24T06:48:17;99441.97;;;12.43;nan
76864;BME280;65834;52.364;9.754;2023-04-24T06:50:46;99445.81;;;12.54;nan
76864;BME280;65834;52.364;9.754;2023-04-24T06:53:17;99460.28;;;12.47;nan
76864;BME280;65834;52.364;9.754;2023-04-24T06:55:47;99453.44;;;12.45;nan
76864;BME280;65834;52.364;9.754;2023-04-24T06:58:20;99458.16;;;12.49;nan
76864;BME280;65834;52.364;9.754;2023-04-24T07:00:49;99454.50;;;12.44;nan
76864;BME280;65834;52.364;9.754;2023-04-24T07:03:19;99459.31;;;12.42;nan
76864;BME280;65834;52.364;9.754;2023-04-24T07:05:49;99466.13;;;12.33;nan
76864;BME280;65834;52.364;9.754;2023-04-24T07:08:20;99459.91;;;12.44;nan
76864;BME280;65834;52.364;9.754;2023-04-24T07:10:50;99457.91;;;12.39;nan
76864;BME280;65834;52.364;9.754;2023-04-24T07:13:22;99452.47;;;12.39;nan
76864;BME280;65834;52.364;9.754;2023-04-24T07:15:53;99455.19;;;12.39;nan
76864;BME280;65834;52.364;9.754;2023-04-24T07:18:23;99451.44;;;12.52;nan
76864;BME280;65834;52.364;9.754;2023-04-24T07:20:53;99443.97;;;12.66;nan
76864;BME280;65834;52.364;9.754;2023-04-24T07:23:23;99451.28;;;12.65;nan
76864;BME280;65834;52.364;9.754;2023-04-24T07:25:53;99455.28;;;12.63;nan
76864;BME280;65834;52.364;9.754;2023-04-24T07:28:25;99463.47;;;12.74;nan
76864;BME280;65834;52.364;9.754;2023-04-24T07:30:57;99458.50;;;12.71;nan
76864;BME280;65834;52.364;9.754;2023-04-24T07:33:28;99469.72;;;12.75;nan
76864;BME280;65834;52.364;9.754;2023-04-24T07:35:58;99469.06;;;12.79;nan
76864;BME280;65834;52.364;9.754;2023-04-24T07:38:29;99485.59;;;12.60;nan
76864;BME280;65834;52.364;9.754;2023-04-24T07:40:58;99480.03;;;12.55;nan
76864;BME280;65834;52.364;9.754;2023-04-24T07:43:30;99484.91;;;12.64;nan
76864;BME280;65834;52.364;9.754;2023-04-24T07:46:00;99487.84;;;12.63;nan
76864;BME280;65834;52.364;9.754;2023-04-24T07:48:31;99481.00;;;12.60;nan
76864;BME280;65834;52.364;9.754;2023-04-24T07:51:04;99489.78;;;12.74;nan
76864;BME280;65834;52.364;9.754;2023-04-24T07:53:33;99494.66;;;12.83;nan
76864;BME280;65834;52.364;9.754;2023-04-24T07:56:03;99498.75;;;12.74;nan
76864;BME280;65834;52.364;9.754;2023-04-24T07:58:36;99502.66;;;12.78;nan
76864;BME280;65834;52.364;9.754;2023-04-24T08:01:06;99496.19;;;12.79;nan
76864;BME280;65834;52.364;9.754;2023-04-24T08:03:36;99505.03;;;12.86;nan
76864;BME280;65834;52.364;9.754;2023-04-24T08:06:06;99498.56;;;12.87;nan
76864;BME280;65834;52.364;9.754;2023-04-24T08:08:36;99508.22;;;12.83;nan
76864;BME280;65834;52.364;9.754;2023-04-24T08:11:05;99512.59;;;12.84;nan
76864;BME280;65834;52.364;9.754;2023-04-24T08:13:38;99514.03;;;12.87;nan
76864;BME280;65834;52.364;9.754;2023-04-24T08:16:07;99506.25;;;12.90;nan
76864;BME280;65834;52.364;9.754;2023-04-24T08:18:37;99508.63;;;12.98;nan
76864;BME280;65834;52.364;9.754;2023-04-24T08:21:07;99516.06;;;12.91;nan
76864;BME280;65834;52.364;9.754;2023-04-24T08:23:37;99513.94;;;12.93;nan
76864;BME280;65834;52.364;9.754;2023-04-24T08:26:07;99514.69;;;13.00;nan
76864;BME280;65834;52.364;9.754;2023-04-24T08:28:40;99519.06;;;12.83;nan
76864;BME280;65834;52.364;9.754;2023-04-24T08:31:09;99529.94;;;12.83;nan
76864;BME280;65834;52.364;9.754;2023-04-24T08:33:39;99524.97;;;12.80;nan
76864;BME280;65834;52.364;9.754;2023-04-24T08:36:11;99533.41;;;12.90;nan
76864;BME280;65834;52.364;9.754;2023-04-24T08:38:42;99531.81;;;12.83;nan
76864;BME280;65834;52.364;9.754;2023-04-24T08:41:14;99524.69;;;12.70;nan
76864;BME280;65834;52.364;9.754;2023-04-24T08:43:46;99528.59;;;12.74;nan
76864;BME280;65834;52.364;9.754;2023-04-24T08:46:16;99531.72;;;12.89;nan
76864;BME280;65834;52.364;9.754;2023-04-24T08:48:46;99533.19;;;12.92;nan
76864;BME280;65834;52.364;9.754;2023-04-24T08:51:16;99534.28;;;13.02;nan
76864;BME280;65834;52.364;9.754;2023-04-24T08:53:46;99541.38;;;13.03;nan
76864;BME280;65834;52.364;9.754;2023-04-24T08:56:16;99546.56;;;13.05;nan
76864;BME280;65834;52.364;9.754;2023-04-24T08:58:50;99539.50;;;13.04;nan
76864;BME280;65834;52.364;9.754;2023-04-24T09:01:20;99536.09;;;13.09;nan
76864;BME280;65834;52.364;9.754;2023-04-24T09:03:49;99530.66;;;13.09;nan
76864;BME280;65834;52.364;9.754;2023-04-24T09:06:21;99533.38;;;13.09;nan
76864;BME280;65834;52.364;9.754;2023-04-24T09:08:53;99523.34;;;13.09;nan
76864;BME280;65834;52.364;9.754;2023-04-24T09:11:24;99523.72;;;13.13;nan
76864;BME280;65834;52.364;9.754;2023-04-24T09:13:56;99527.16;;;13.20;nan
76864;BME280;65834;52.364;9.754;2023-04-24T09:16:27;99540.53;;;13.33;nan
76864;BME280;65834;52.364;9.754;2023-04-24T09:18:56;99552.03;;;13.35;nan
76864;BME280;65834;52.364;9.754;2023-04-24T09:21:31;99542.22;;;13.34;nan
76864;BME280;65834;52.364;9.754;2023-04-24T09:24:05;99544.44;;;13.25;nan
76864;BME280;65834;52.364;9.754;2023-04-24T09:26:35;99545.69;;;13.23;nan
76864;BME280;65834;52.364;9.754;2023-04-24T09:29:08;99551.38;;;13.21;nan
76864;BME280;65834;52.364;9.754;2023-04-24T09:31:44;99551.47;;;13.15;nan
76864;BME280;65834;52.364;9.754;2023-04-24T09:34:14;99550.16;;;13.17;nan
76864;BME280;65834;52.364;9.754;2023-04-24T09:36:43;99550.63;;;13.14;nan
76864;BME280;65834;52.364;9.754;2023-04-24T09:39:15;99543.47;;;13.01;nan
76864;BME280;65834;52.364;9.754;2023-04-24T09:41:47;99541.13;;;13.05;nan
76864;BME280;65834;52.364;9.754;2023-04-24T09:44:20;99555.31;;;13.07;nan
76864;BME280;65834;52.364;9.754;2023-04-24T09:46:52;99549.34;;;12.98;nan
76864;BME280;65834;52.364;9.754;2023-04-24T09:49:23;99552.75;;;13.12;nan
76864;BME280;65834;52.364;9.754;2023-04-24T09:52:02;99551.84;;;13.18;nan
76864;BME280;65834;52.364;9.754;2023-04-24T09:54:32;99557.72;;;13.15;nan
76864;BME280;65834;52.364;9.754;2023-04-24T09:57:03;99553.41;;;13.07;nan
76864;BME280;65834;52.364;9.754;2023-04-24T09:59:41;99567.16;;;13.13;nan
76864;BME280;65834;52.364;9.754;2023-04-24T10:02:16;99558.94;;;13.19;nan
76864;BME280;65834;52.364;9.754;2023-04-24T10:04:54;99564.25;;;13.07;nan
76864;BME280;65834;52.364;9.754;2023-04-24T10:07:26;99568.00;;;13.13;nan
76864;BME280;65834;52.364;9.754;2023-04-24T10:09:56;99563.75;;;13.17;nan
76864;BME280;65834;52.364;9.754;2023-04-24T10:12:26;99560.91;;;13.12;nan
76864;BME280;65834;52.364;9.754;2023-04-24T10:15:00;99555.47;;;13.12;nan
76864;BME280;65834;52.364;9.754;2023-04-24T10:17:32;99549.72;;;13.20;nan
76864;BME280;65834;52.364;9.754;2023-04-24T10:20:02;99545.50;;;13.06;nan
76864;BME280;65834;52.364;9.754;2023-04-24T10:22:33;99548.63;;;12.91;nan
76864;BME280;65834;52.364;9.754;2023-04-24T10:25:04;99553.06;;;13.04;nan
76864;BME280;65834;52.364;9.754;2023-04-24T10:27:35;99556.53;;;12.93;nan
76864;BME280;65834;52.364;9.754;2023-04-24T10:30:11;99548.63;;;12.91;nan
76864;BME280;65834;52.364;9.754;2023-04-24T10:32:41;99541.31;;;12.92;nan
76864;BME280;65834;52.364;9.754;2023-04-24T10:35:13;99546.84;;;12.85;nan
76864;BME280;65834;52.364;9.754;2023-04-24T10:37:44;99547.19;;;12.89;nan
76864;BME280;65834;52.364;9.754;2023-04-24T10:40:17;99552.09;;;12.80;nan
76864;BME280;65834;52.364;9.754;2023-04-24T10:42:47;99551.25;;;12.80;nan
76864;BME280;65834;52.364;9.754;2023-04-24T10:45:21;99547.50;;;12.81;nan
76864;BME280;65834;52.364;9.754;2023-04-24T10:47:53;99556.19;;;12.71;nan
76864;BME280;65834;52.364;9.754;2023-04-24T10:50:22;99560.03;;;12.82;nan
76864;BME280;65834;52.364;9.754;2023-04-24T10:52:52;99556.34;;;12.76;nan
76864;BME280;65834;52.364;9.754;2023-04-24T10:55:42;99556.88;;;12.67;nan
76864;BME280;65834;52.364;9.754;2023-04-24T10:58:12;99550.69;;;12.78;nan
76864;BME280;65834;52.364;9.754;2023-04-24T11:00:55;99554.28;;;12.72;nan
76864;BME280;65834;52.364;9.754;2023-04-24T11:03:27;99554.69;;;12.75;nan
76864;BME280;65834;52.364;9.754;2023-04-24T11:05:59;99551.38;;;12.73;nan
76864;BME280;65834;52.364;9.754;2023-04-24T11:08:31;99551.22;;;12.68;nan
76864;BME280;65834;52.364;9.754;2023-04-24T11:11:03;99557.84;;;12.72;nan
76864;BME280;65834;52.364;9.754;2023-04-24T11:16:43;99567.09;;;12.65;nan
76864;BME280;65834;52.364;9.754;2023-04-24T11:19:24;99569.47;;;12.79;nan
76864;BME280;65834;52.364;9.754;2023-04-24T11:21:58;99565.44;;;12.82;nan
76864;BME280;65834;52.364;9.754;2023-04-24T11:24:31;99561.44;;;12.84;nan
76864;BME280;65834;52.364;9.754;2023-04-24T11:27:06;99565.59;;;12.69;nan
76864;BME280;65834;52.364;9.754;2023-04-24T11:29:41;99559.88;;;12.77;nan
76864;BME280;65834;52.364;9.754;2023-04-24T11:32:24;99563.94;;;12.68;nan
76864;BME280;65834;52.364;9.754;2023-04-24T11:34:56;99559.19;;;12.81;nan
76864;BME280;65834;52.364;9.754;2023-04-24T11:37:28;99559.03;;;12.94;nan
76864;BME280;65834;52.364;9.754;2023-04-24T11:39:58;99551.34;;;12.91;nan
76864;BME280;65834;52.364;9.754;2023-04-24T11:42:34;99548.75;;;12.96;nan
76864;BME280;65834;52.364;9.754;2023-04-24T11:45:08;99559.16;;;12.99;nan
76864;BME280;65834;52.364;9.754;2023-04-24T11:47:42;99562.72;;;13.00;nan
76864;BME280;65834;52.364;9.754;2023-04-24T11:50:13;99567.09;;;13.01;nan
76864;BME280;65834;52.364;9.754;2023-04-24T11:52:45;99569.69;;;13.07;nan
76864;BME280;65834;52.364;9.754;2023-04-24T11:55:28;99569.81;;;13.01;nan
76864;BME280;65834;52.364;9.754;2023-04-24T11:57:58;99557.06;;;12.83;nan
76864;BME280;65834;52.364;9.754;2023-04-24T12:00:30;99576.44;;;12.87;nan
76864;BME280;65834;52.364;9.754;2023-04-24T12:03:07;99570.72;;;12.77;nan
76864;BME280;65834;52.364;9.754;2023-04-24T12:05:38;99567.47;;;12.86;nan
76864;BME280;65834;52.364;9.754;2023-04-24T12:08:08;99569.72;;;12.89;nan
76864;BME280;65834;52.364;9.754;2023-04-24T12:10:38;99564.22;;;12.96;nan
76864;BME280;65834;52.364;9.754;2023-04-24T12:13:09;99580.88;;;12.99;nan
76864;BME280;65834;52.364;9.754;2023-04-24T12:15:39;99573.34;;;12.83;nan
76864;BME280;65834;52.364;9.754;2023-04-24T12:18:15;99592.75;;;12.69;nan
76864;BME280;65834;52.364;9.754;2023-04-24T12:20:46;99590.53;;;12.77;nan
76864;BME280;65834;52.364;9.754;2023-04-24T12:23:15;99584.66;;;12.62;nan
76864;BME280;65834;52.364;9.754;2023-04-24T12:25:45;99586.41;;;12.75;nan
76864;BME280;65834;52.364;9.754;2023-04-24T12:28:15;99590.53;;;12.77;nan
76864;BME280;65834;52.364;9.754;2023-04-24T12:30:47;99594.09;;;12.78;nan
76864;BME280;65834;52.364;9.754;2023-04-24T12:33:21;99596.34;;;12.81;nan
76864;BME280;65834;52.364;9.754;2023-04-24T12:35:52;99597.69;;;12.90;nan
76864;BME280;65834;52.364;9.754;2023-04-24T12:38:23;99596.34;;;12.99;nan
76864;BME280;65834;52.364;9.754;2023-04-24T12:41:02;99600.19;;;12.91;nan
76864;BME280;65834;52.364;9.754;2023-04-24T12:43:33;99610.66;;;13.06;nan
76864;BME280;65834;52.364;9.754;2023-04-24T12:46:03;99611.56;;;13.18;nan
76864;BME280;65834;52.364;9.754;2023-04-24T12:48:36;99620.09;;;13.22;nan
76864;BME280;65834;52.364;9.754;2023-04-24T12:51:05;99614.66;;;13.22;nan
76864;BME280;65834;52.364;9.754;2023-04-24T12:53:35;99618.84;;;13.36;nan
76864;BME280;65834;52.364;9.754;2023-04-24T12:56:05;99624.06;;;13.37;nan
76864;BME280;65834;52.364;9.754;2023-04-24T12:58:34;99629.97;;;13.34;nan
76864;BME280;65834;52.364;9.754;2023-04-24T13:01:04;99639.16;;;13.33;nan
76864;BME280;65834;52.364;9.754;2023-04-24T13:03:36;99644.28;;;13.05;nan
76864;BME280;65834;52.364;9.754;2023-04-24T13:06:06;99649.81;;;13.17;nan
76864;BME280;65834;52.364;9.754;2023-04-24T13:08:36;99649.84;;;12.74;nan
76864;BME280;65834;52.364;9.754;2023-04-24T13:11:05;99659.59;;;12.81;nan
76864;BME280;65834;52.364;9.754;2023-04-24T13:13:35;99665.03;;;12.81;nan
76864;BME280;65834;52.364;9.754;2023-04-24T13:16:05;99678.00;;;12.79;nan
76864;BME280;65834;52.364;9.754;2023-04-24T13:18:37;99683.81;;;12.58;nan
76864;BME280;65834;52.364;9.754;2023-04-24T13:21:06;99683.53;;;12.48;nan
76864;BME280;65834;52.364;9.754;2023-04-24T13:23:36;99686.78;;;12.32;nan
76864;BME280;65834;52.364;9.754;2023-04-24T13:26:06;99689.75;;;12.30;nan
76864;BME280;65834;52.364;9.754;2023-04-24T13:28:35;99686.91;;;12.43;nan
76864;BME280;65834;52.364;9.754;2023-04-24T13:31:05;99677.59;;;12.58;nan
76864;BME280;65834;52.364;9.754;2023-04-24T13:33:37;99692.81;;;12.34;nan
76864;BME280;65834;52.364;9.754;2023-04-24T13:36:07;99692.25;;;12.50;nan
76864;BME280;65834;52.364;9.754;2023-04-24T13:38:37;99701.97;;;12.39;nan
76864;BME280;65834;52.364;9.754;2023-04-24T13:41:08;99696.75;;;12.38;nan
76864;BME280;65834;52.364;9.754;2023-04-24T13:43:37;99701.84;;;12.28;nan
76864;BME280;65834;52.364;9.754;2023-04-24T13:46:08;99711.09;;;12.45;nan
76864;BME280;65834;52.364;9.754;2023-04-24T13:48:40;99719.38;;;12.25;nan
76864;BME280;65834;52.364;9.754;2023-04-24T13:51:10;99737.72;;;12.30;nan